sensor_id;sensor_type;location;lat;lon;timestamp;pressure;altitude;pressure_sealevel;temperature;humidity
38253;BME280;24785;52.372;20.672;2023-04-26T00:08:59;99959.34;;;6.10;100.00
38253;BME280;24785;52.372;20.672;2023-04-26T00:19:00;99977.16;;;6.09;100.00
38253;BME280;24785;52.372;20.672;2023-04-26T00:29:03;99976.31;;;6.04;100.00
38253;BME280;24785;52.372;20.672;2023-04-26T00:39:04;99990.94;;;6.01;100.00
38253;BME280;24785;52.372;20.672;2023-04-26T00:49:05;99994.84;;;5.93;100.00
38253;BME280;24785;52.372;20.672;2023-04-26T00:59:06;99992.44;;;5.92;100.00
38253;BME280;24785;52.372;20.672;2023-04-26T01:09:07;99996.47;;;5.94;100.00
38253;BME280;24785;52.372;20.672;2023-04-26T01:19:10;99996.22;;;5.96;100.00
38253;BME280;24785;52.372;20.672;2023-04-26T01:29:20;99996.59;;;5.83;100.00
38253;BME280;24785;52.372;20.672;2023-04-26T01:39:21;99997.31;;;5.73;100.00
38253;BME280;24785;52.372;20.672;2023-04-26T01:49:22;99993.59;;;5.74;100.00
38253;BME280;24785;52.372;20.672;2023-04-26T01:59:23;99998.50;;;5.60;100.00
38253;BME280;24785;52.372;20.672;2023-04-26T02:09:24;99993.09;;;5.50;100.00
38253;BME280;24785;52.372;20.672;2023-04-26T02:19:25;100007.13;;;5.46;100.00
38253;BME280;24785;52.372;20.672;2023-04-26T02:29:26;100014.94;;;5.30;100.00
38253;BME280;24785;52.372;20.672;2023-04-26T02:39:27;100017.47;;;4.98;100.00
38253;BME280;24785;52.372;20.672;2023-04-26T02:49:29;100015.91;;;4.64;100.00
38253;BME280;24785;52.372;20.672;2023-04-26T02:59:30;100012.75;;;4.28;100.00
38253;BME280;24785;52.372;20.672;2023-04-26T03:09:31;100013.47;;;4.07;100.00
38253;BME280;24785;52.372;20.672;2023-04-26T03:19:31;100013.59;;;3.84;100.00
38253;BME280;24785;52.372;20.672;2023-04-26T03:29:32;100020.47;;;3.68;100.00
38253;BME280;24785;52.372;20.672;2023-04-26T03:39:33;100039.22;;;3.50;100.00
38253;BME280;24785;52.372;20.672;2023-04-26T03:49:34;100047.44;;;3.36;100.00
38253;BME280;24785;52.372;20.672;2023-04-26T03:59:35;100045.69;;;3.42;100.00
38253;BME280;24785;52.372;20.672;2023-04-26T04:09:36;100052.25;;;3.68;100.00
38253;BME280;24785;52.372;20.672;2023-04-26T04:19:37;100070.09;;;4.01;100.00
38253;BME280;24785;52.372;20.672;2023-04-26T04:29:38;100063.16;;;4.28;100.00
38253;BME280;24785;52.372;20.672;2023-04-26T04:39:40;100075.28;;;4.74;100.00
38253;BME280;24785;52.372;20.672;2023-04-26T04:49:41;100079.97;;;5.06;100.00
38253;BME280;24785;52.372;20.672;2023-04-26T04:59:42;100073.97;;;6.08;100.00
38253;BME280;24785;52.372;20.672;2023-04-26T05:09:43;100090.63;;;5.50;100.00
38253;BME280;24785;52.372;20.672;2023-04-26T05:19:45;100110.59;;;5.14;100.00
38253;BME280;24785;52.372;20.672;2023-04-26T05:29:48;100119.97;;;5.38;100.00
38253;BME280;24785;52.372;20.672;2023-04-26T05:39:48;100117.38;;;5.65;100.00
38253;BME280;24785;52.372;20.672;2023-04-26T05:49:50;100118.81;;;5.94;97.33
38253;BME280;24785;52.372;20.672;2023-04-26T05:59:51;100114.09;;;5.80;95.39
38253;BME280;24785;52.372;20.672;2023-04-26T06:09:52;100121.94;;;6.45;94.14
38253;BME280;24785;52.372;20.672;2023-04-26T06:19:52;100121.97;;;6.18;86.75
38253;BME280;24785;52.372;20.672;2023-04-26T06:29:53;100123.44;;;6.63;89.15
38253;BME280;24785;52.372;20.672;2023-04-26T06:39:54;100130.94;;;6.39;85.30
38253;BME280;24785;52.372;20.672;2023-04-26T06:49:55;100129.75;;;7.31;81.60
38253;BME280;24785;52.372;20.672;2023-04-26T06:59:56;100127.22;;;7.09;81.02
38253;BME280;24785;52.372;20.672;2023-04-26T07:09:57;100137.00;;;6.99;79.09
38253;BME280;24785;52.372;20.672;2023-04-26T07:19:58;100147.09;;;7.39;78.94
38253;BME280;24785;52.372;20.672;2023-04-26T07:29:59;100145.78;;;7.41;74.50
38253;BME280;24785;52.372;20.672;2023-04-26T07:40:00;100141.22;;;7.99;75.09
38253;BME280;24785;52.372;20.672;2023-04-26T07:50:01;100145.69;;;7.78;74.52
38253;BME280;24785;52.372;20.672;2023-04-26T08:00:03;100150.44;;;7.66;74.49
38253;BME280;24785;52.372;20.672;2023-04-26T08:10:08;100149.47;;;7.98;70.69
38253;BME280;24785;52.372;20.672;2023-04-26T08:20:09;100151.69;;;8.26;69.84
38253;BME280;24785;52.372;20.672;2023-04-26T08:30:10;100147.97;;;7.49;63.73
38253;BME280;24785;52.372;20.672;2023-04-26T08:40:11;100156.91;;;7.28;67.27
38253;BME280;24785;52.372;20.672;2023-04-26T08:50:14;100164.59;;;7.72;67.79
38253;BME280;24785;52.372;20.672;2023-04-26T09:00:17;100170.91;;;8.18;63.48
38253;BME280;24785;52.372;20.672;2023-04-26T09:10:19;100162.53;;;7.94;57.84
38253;BME280;24785;52.372;20.672;2023-04-26T09:20:24;100188.34;;;7.68;59.00
38253;BME280;24785;52.372;20.672;2023-04-26T09:30:26;100196.34;;;7.73;59.13
38253;BME280;24785;52.372;20.672;2023-04-26T09:40:30;100204.50;;;7.56;59.76
38253;BME280;24785;52.372;20.672;2023-04-26T09:50:31;100190.72;;;8.37;57.37
38253;BME280;24785;52.372;20.672;2023-04-26T10:00:32;100195.66;;;8.03;55.57
38253;BME280;24785;52.372;20.672;2023-04-26T10:10:34;100190.22;;;8.56;55.96
38253;BME280;24785;52.372;20.672;2023-04-26T10:20:40;100211.47;;;8.20;55.22
38253;BME280;24785;52.372;20.672;2023-04-26T10:30:56;100203.13;;;8.01;55.84
38253;BME280;24785;52.372;20.672;2023-04-26T10:51:32;100231.13;;;7.94;57.24
38253;BME280;24785;52.372;20.672;2023-04-26T11:01:33;100215.63;;;9.14;56.61
38253;BME280;24785;52.372;20.672;2023-04-26T11:11:50;100215.88;;;8.82;52.33
38253;BME280;24785;52.372;20.672;2023-04-26T11:21:51;100210.53;;;8.77;53.89
38253;BME280;24785;52.372;20.672;2023-04-26T11:31:54;100250.91;;;8.96;55.27
38253;BME280;24785;52.372;20.672;2023-04-26T11:42:03;100237.25;;;8.77;52.37
38253;BME280;24785;52.372;20.672;2023-04-26T11:52:05;100258.88;;;7.98;54.95
38253;BME280;24785;52.372;20.672;2023-04-26T12:02:08;100248.06;;;8.30;53.27
38253;BME280;24785;52.372;20.672;2023-04-26T12:12:10;100253.47;;;8.40;52.79
38253;BME280;24785;52.372;20.672;2023-04-26T12:22:11;100260.50;;;8.71;51.47
38253;BME280;24785;52.372;20.672;2023-04-26T12:32:11;100270.59;;;8.49;52.60
38253;BME280;24785;52.372;20.672;2023-04-26T12:42:12;100281.06;;;8.76;53.85
38253;BME280;24785;52.372;20.672;2023-04-26T12:52:13;100282.94;;;8.65;51.41
38253;BME280;24785;52.372;20.672;2023-04-26T13:02:14;100302.06;;;8.37;52.74
38253;BME280;24785;52.372;20.672;2023-04-26T13:12:15;100306.84;;;8.35;52.55
38253;BME280;24785;52.372;20.672;2023-04-26T13:22:16;100312.22;;;8.45;52.68
38253;BME280;24785;52.372;20.672;2023-04-26T13:32:17;100311.25;;;8.76;52.72
38253;BME280;24785;52.372;20.672;2023-04-26T13:42:18;100328.56;;;8.54;52.67
38253;BME280;24785;52.372;20.672;2023-04-26T13:52:20;100328.06;;;8.04;53.11
38253;BME280;24785;52.372;20.672;2023-04-26T14:02:21;100337.28;;;7.92;54.83
38253;BME280;24785;52.372;20.672;2023-04-26T14:12:23;100351.66;;;8.28;57.30
38253;BME280;24785;52.372;20.672;2023-04-26T14:22:25;100368.28;;;7.98;57.39
38253;BME280;24785;52.372;20.672;2023-04-26T14:32:26;100378.13;;;8.34;57.91
38253;BME280;24785;52.372;20.672;2023-04-26T14:42:27;100385.75;;;8.58;56.58
38253;BME280;24785;52.372;20.672;2023-04-26T14:52:29;100395.16;;;8.28;57.96
38253;BME280;24785;52.372;20.672;2023-04-26T15:02:31;100396.50;;;7.88;53.90
38253;BME280;24785;52.372;20.672;2023-04-26T15:12:33;100410.53;;;7.74;54.61
38253;BME280;24785;52.372;20.672;2023-04-26T15:22:34;100409.53;;;7.53;55.54
38253;BME280;24785;52.372;20.672;2023-04-26T15:32:35;100424.06;;;7.62;57.32
38253;BME280;24785;52.372;20.672;2023-04-26T15:42:36;100422.44;;;7.61;57.29
38253;BME280;24785;52.372;20.672;2023-04-26T15:52:37;100406.59;;;7.81;56.87
38253;BME280;24785;52.372;20.672;2023-04-26T16:02:38;100414.91;;;7.85;56.87
38253;BME280;24785;52.372;20.672;2023-04-26T16:12:39;100415.63;;;8.12;57.51
38253;BME280;24785;52.372;20.672;2023-04-26T16:22:42;100410.91;;;7.87;55.29
38253;BME280;24785;52.372;20.672;2023-04-26T16:32:43;100421.88;;;7.91;56.68
38253;BME280;24785;52.372;20.672;2023-04-26T16:42:43;100425.31;;;7.86;56.42
38253;BME280;24785;52.372;20.672;2023-04-26T16:52:44;100431.91;;;7.79;56.58
38253;BME280;24785;52.372;20.672;2023-04-26T17:02:47;100443.94;;;7.81;57.78
38253;BME280;24785;52.372;20.672;2023-04-26T17:12:48;100452.78;;;7.87;56.38
38253;BME280;24785;52.372;20.672;2023-04-26T17:22:50;100456.53;;;7.86;55.30
38253;BME280;24785;52.372;20.672;2023-04-26T17:32:51;100457.72;;;7.68;55.21
38253;BME280;24785;52.372;20.672;2023-04-26T17:42:51;100469.69;;;7.39;55.08
38253;BME280;24785;52.372;20.672;2023-04-26T17:52:52;100474.59;;;7.03;57.12
38253;BME280;24785;52.372;20.672;2023-04-26T18:02:53;100489.44;;;6.55;59.62
38253;BME280;24785;52.372;20.672;2023-04-26T18:12:55;100502.59;;;5.95;64.73
38253;BME280;24785;52.372;20.672;2023-04-26T18:22:56;100522.50;;;5.35;68.77
38253;BME280;24785;52.372;20.672;2023-04-26T18:32:57;100540.03;;;4.96;72.67
38253;BME280;24785;52.372;20.672;2023-04-26T18:42:57;100551.34;;;4.92;78.17
38253;BME280;24785;52.372;20.672;2023-04-26T18:52:58;100553.44;;;4.66;77.45
38253;BME280;24785;52.372;20.672;2023-04-26T19:02:59;100565.00;;;4.07;80.92
38253;BME280;24785;52.372;20.672;2023-04-26T19:13:00;100567.78;;;4.12;82.66
38253;BME280;24785;52.372;20.672;2023-04-26T19:23:01;100576.56;;;4.13;83.32
38253;BME280;24785;52.372;20.672;2023-04-26T19:33:02;100583.88;;;3.87;84.12
38253;BME280;24785;52.372;20.672;2023-04-26T19:43:03;100586.44;;;3.45;84.94
38253;BME280;24785;52.372;20.672;2023-04-26T19:53:04;100595.78;;;2.93;90.84
38253;BME280;24785;52.372;20.672;2023-04-26T20:03:05;100596.25;;;2.34;94.26
38253;BME280;24785;52.372;20.672;2023-04-26T20:13:06;100602.88;;;2.18;100.00
38253;BME280;24785;52.372;20.672;2023-04-26T20:23:07;100595.38;;;2.15;100.00
38253;BME280;24785;52.372;20.672;2023-04-26T20:33:07;100611.72;;;2.05;100.00
38253;BME280;24785;52.372;20.672;2023-04-26T20:43:08;100613.47;;;1.80;100.00
38253;BME280;24785;52.372;20.672;2023-04-26T20:53:11;100612.97;;;1.58;100.00
38253;BME280;24785;52.372;20.672;2023-04-26T21:03:12;100616.53;;;1.25;100.00
38253;BME280;24785;52.372;20.672;2023-04-26T21:13:13;100620.25;;;0.98;100.00
38253;BME280;24785;52.372;20.672;2023-04-26T21:23:14;100636.91;;;0.79;100.00
38253;BME280;24785;52.372;20.672;2023-04-26T21:33:15;100637.91;;;0.71;100.00
38253;BME280;24785;52.372;20.672;2023-04-26T21:43:17;100654.34;;;0.67;100.00
38253;BME280;24785;52.372;20.672;2023-04-26T21:53:19;100673.22;;;0.57;100.00
38253;BME280;24785;52.372;20.672;2023-04-26T22:03:20;100673.19;;;0.37;100.00
38253;BME280;24785;52.372;20.672;2023-04-26T22:13:21;100686.16;;;0.32;100.00
38253;BME280;24785;52.372;20.672;2023-04-26T22:23:22;100696.03;;;0.10;100.00
38253;BME280;24785;52.372;20.672;2023-04-26T22:33:23;100704.47;;;-0.08;100.00
38253;BME280;24785;52.372;20.672;2023-04-26T22:43:24;100714.13;;;-0.21;100.00
38253;BME280;24785;52.372;20.672;2023-04-26T22:53:25;100712.03;;;-0.39;100.00
38253;BME280;24785;52.372;20.672;2023-04-26T23:03:26;100715.72;;;-0.61;100.00
38253;BME280;24785;52.372;20.672;2023-04-26T23:13:26;100728.00;;;-0.75;100.00
38253;BME280;24785;52.372;20.672;2023-04-26T23:23:28;100738.31;;;-1.02;100.00
38253;BME280;24785;52.372;20.672;2023-04-26T23:33:30;100735.31;;;-1.20;100.00
38253;BME280;24785;52.372;20.672;2023-04-26T23:43:31;100741.91;;;-1.31;100.00
38253;BME280;24785;52.372;20.672;2023-04-26T23:53:32;100747.34;;;-1.32;100.00
